Share

Fay, OK (73646)

Watonga (KJWG) Elev 1549 ft | 35.86 °N, 98.42 °W | Change Station

Current weather conditions updated 20 minutes ago

Clear
Clear
54 °F
Feels Like 54 °F
N
0
Wind Variable Wind from North
Sunrise 6:56 AM
Sunset 8:11 PM
Moon Waning Gibbous

Today is forecast to be Much Warmer than yesterday.

Pressure 30.14 in
Visibility 10.0 miles
Clouds Clear
Dew Point 48 °F
Humidity 81%
Rainfall 0.00 in
Snow Depth Not available.
UV 0 out of 16
Pollen 9.80 out of 12
Air Quality Not available.
Flu Activity Regional
METAR KJWG 190455Z AUTO 00000KT 10SM CLR 12/09 A3014 RMK AO2 T01220091

More Conditions Fewer Conditions

Pressure 30.14 in
Visibility 10.0 miles
Clouds Clear
Dew Point 48 °F
Humidity 81%
Rainfall 0.00 in
Snow Depth Not available.
UV 0 out of 16
Pollen 9.80 out of 12
Air Quality Not available.
Flu Activity Regional
METAR KJWG 190455Z AUTO 00000KT 10SM CLR 12/09 A3014 RMK AO2 T01220091

More Conditions Fewer Conditions

10-Day Weather Forecast

Almanac

Astronomy

Apr. 19, 2014 Rise Set
Actual Time 6:56 AM CDT 8:11 PM CDT
Civil Twilight 6:30 AM CDT 8:38 PM CDT
Nautical Twilight 5:58 AM CDT 9:10 PM CDT
Astronomical Twilight 5:25 AM CDT 9:43 PM CDT
Moon No Moon Rise 10:20 AM CDT
Length of Visible Light 14h 08m
Length of Day
13h 14m
Tomorrow will be 2m 5s longer.
Waning Gibbous, 83% of the Moon is Illuminated
Today
Waning Gibbous
Apr 22
Last Quarter
Apr 29
New
May 6
First Quarter
May 14
Full

Today's Extremes

State Highs State Lows

Community

  • Sunset Silhouettes
    Sunset Silhouettes
  • FL sunset Perico Isle
    FL sunset Perico Isle
  • Cloudy spring view
    Cloudy spring view
  • Old barn
    Old barn
  • What's for Lunch?
    What's for Lunch?

WunderPhotos

Upload Photos

1,702,645 photos uploaded!

WunderBlogs® & News

Nearby

Snow Depth

Station Depth Elevation
No new snow has been reported.

Coastal Water Temperatures

Place Temperature
No Stations Reporting

Earthquake Activity

City Distance Mag. Time & Date
Perry, Oklahoma 85 miles 2.5 1:42 PM CDT
2014-04-14
Perry, Oklahoma 84 miles 2.6 1:20 PM CDT
2014-04-14
Guthrie, Oklahoma 65 miles 3.0 8:17 AM CDT
2014-04-14
Guthrie, Oklahoma 66 miles 3.7 3:02 PM CDT
2014-04-13
Minimum magnitude displayed is 2.5.

Nearby Weather Stations

Station Location Temp. Dew Point Humidity Wind Precip. Elev Updated Type
Watonga North, Watonga, OK 53.4 °F 45 °F 73% SE  at  0.0 mph 0.00 in / hr 1549 ft 12:15 AM CDT Rapid Fire
The MadCatter Canton Oklahoma, Canton, OK 50.2 °F 47 °F 88% SSW  at  1.7 mph - / hr 1654 ft 12:00 AM CDT Normal
Custer City, Custer City, OK 54.3 °F 49 °F 82% South  at  1.0 mph 0.00 in / hr 1775 ft 12:15 AM CDT Rapid Fire
HADS NORTH CANADIAN RIVER AT DAM NEAR OK, Canton, OK 56 °F 47 °F 72% SE  at  1 mph 0.00 in / hr 1649 ft 11:00 PM CDT MADIS

Show More Stations Show Fewer Stations

What do you think?

We're not finished. Please let us know what you like, what you don't like, and what you are still missing.